Valdez, New Mexico
Current Conditions -  °F | °C
As of 6:15 PM on Friday 28 Nov 2014 (Local Time) from KSKX Reporting Station
Clear Clear  
Wind Chill: 44°   Ceiling: Unl
Heat Index: 46°   Visibility: 10mi
Dew Point: 19°   Wind: 6mph
Humidity: 34%   Direction: 310°NW
Pressure: 30.14"   Gusts: NA
Location:  36.53°N, 105.58°W
Report Text: KSKX 290115Z AUTO 31005KT 10SM CLR 08/M07 A3014 RMK AO1
Loading
Personal Weather Stations






























Interactive Weather Map New forecast layout! Learn more

10-Day Weather Forecast

Advertisements
Track Severe Weather on mobile